Time,TemperatureF,DewpointF,PressureIn,WindDirection,WindDirectionDegrees,WindSpeedMPH,WindSpeedGustMPH,Humidity,HourlyPrecipIn,Conditions,Clouds,dailyrainin,SolarRadiationWatts/m^2,SoftwareType,DateUTC
2013-05-14 00:03:00,39.0,34.0,-100.00,NNE,30,1.0,2.0,83,0.00,,,0.00,0.000000,,2013-05-14 04:03:00,
2013-05-14 00:32:00,37.0,34.0,-100.00,North,4,0.0,1.0,90,0.00,,,0.00,0.000000,,2013-05-14 04:32:00,
2013-05-14 00:43:00,37.0,34.0,-100.00,North,4,0.0,1.0,90,0.00,,,0.00,0.000000,,2013-05-14 04:43:00,
2013-05-14 00:53:00,37.0,34.0,-100.00,North,4,0.0,1.0,90,0.00,,,0.00,0.000000,,2013-05-14 04:53:00,
2013-05-14 01:02:00,37.0,34.0,-100.00,North,4,0.0,1.0,90,0.00,,,0.00,0.000000,,2013-05-14 05:02:00,
2013-05-14 01:32:00,36.0,34.0,-100.00,West,265,1.0,1.0,92,0.00,,,0.00,0.000000,,2013-05-14 05:32:00,
2013-05-14 01:42:00,36.0,34.0,-100.00,West,265,1.0,1.0,92,0.00,,,0.00,0.000000,,2013-05-14 05:42:00,
2013-05-14 01:52:00,36.0,34.0,-100.00,West,265,1.0,1.0,92,0.00,,,0.00,0.000000,,2013-05-14 05:52:00,
2013-05-14 02:01:00,36.0,34.0,-100.00,West,265,1.0,1.0,92,0.00,,,0.00,0.000000,,2013-05-14 06:01:00,
2013-05-14 02:32:00,34.0,32.0,-100.00,North,7,0.0,0.0,92,0.00,,,0.00,0.000000,,2013-05-14 06:32:00,
2013-05-14 02:42:00,34.0,32.0,-100.00,North,7,0.0,0.0,92,0.00,,,0.00,0.000000,,2013-05-14 06:42:00,
2013-05-14 02:52:00,34.0,32.0,-100.00,North,7,0.0,0.0,92,0.00,,,0.00,0.000000,,2013-05-14 06:52:00,
2013-05-14 03:02:00,34.0,32.0,-100.00,North,7,0.0,0.0,92,0.00,,,0.00,0.000000,,2013-05-14 07:02:00,
2013-05-14 03:32:00,33.0,31.0,-100.00,NE,38,1.0,1.0,93,0.00,,,0.00,0.000000,,2013-05-14 07:32:00,
2013-05-14 03:42:00,33.0,31.0,-100.00,NE,38,1.0,1.0,93,0.00,,,0.00,0.000000,,2013-05-14 07:42:00,
2013-05-14 03:52:00,33.0,31.0,-100.00,NE,38,1.0,1.0,93,0.00,,,0.00,0.000000,,2013-05-14 07:52:00,
2013-05-14 04:02:00,33.0,31.0,-100.00,NE,38,1.0,1.0,93,0.00,,,0.00,0.000000,,2013-05-14 08:02:00,
2013-05-14 04:32:00,33.0,31.0,-100.00,NW,306,0.0,0.0,93,0.00,,,0.00,0.000000,,2013-05-14 08:32:00,
2013-05-14 04:42:00,33.0,31.0,-100.00,NW,306,0.0,0.0,93,0.00,,,0.00,0.000000,,2013-05-14 08:42:00,
2013-05-14 04:52:00,33.0,31.0,-100.00,NW,306,0.0,0.0,93,0.00,,,0.00,0.000000,,2013-05-14 08:52:00,
2013-05-14 05:02:00,33.0,31.0,-100.00,NW,306,0.0,0.0,93,0.00,,,0.00,0.000000,,2013-05-14 09:02:00,
2013-05-14 05:33:00,31.0,29.0,-100.00,North,352,0.0,0.0,93,0.00,,,0.00,0.000000,,2013-05-14 09:33:00,
2013-05-14 05:44:00,31.0,29.0,-100.00,North,352,0.0,0.0,93,0.00,,,0.00,0.000000,,2013-05-14 09:44:00,
2013-05-14 05:54:00,31.0,29.0,-100.00,North,352,0.0,0.0,93,0.00,,,0.00,0.000000,,2013-05-14 09:54:00,
2013-05-14 06:05:00,31.0,29.0,-100.00,North,352,0.0,0.0,93,0.00,,,0.00,0.000000,,2013-05-14 10:05:00,
2013-05-14 06:33:00,31.0,29.0,-100.00,North,355,0.0,0.0,93,0.00,,,0.00,0.000000,,2013-05-14 10:33:00,
2013-05-14 06:42:00,31.0,29.0,-100.00,North,355,0.0,0.0,93,0.00,,,0.00,0.000000,,2013-05-14 10:42:00,
2013-05-14 06:53:00,31.0,29.0,-100.00,North,355,0.0,0.0,93,0.00,,,0.00,0.000000,,2013-05-14 10:53:00,
2013-05-14 07:03:00,31.0,29.0,-100.00,North,355,0.0,0.0,93,0.00,,,0.00,0.000000,,2013-05-14 11:03:00,
2013-05-14 07:32:00,32.0,30.0,-100.00,SW,228,0.0,0.0,93,0.00,,,0.00,20.000000,,2013-05-14 11:32:00,
2013-05-14 07:43:00,32.0,30.0,-100.00,SW,228,0.0,0.0,93,0.00,,,0.00,20.000000,,2013-05-14 11:43:00,
2013-05-14 07:53:00,32.0,30.0,-100.00,SW,228,0.0,0.0,93,0.00,,,0.00,20.000000,,2013-05-14 11:53:00,
2013-05-14 08:03:00,32.0,30.0,-100.00,SW,228,0.0,0.0,93,0.00,,,0.00,20.000000,,2013-05-14 12:03:00,
2013-05-14 08:32:00,40.0,35.0,-100.00,SSE,165,2.0,4.0,82,0.00,,,0.00,208.000000,,2013-05-14 12:32:00,
2013-05-14 08:42:00,40.0,35.0,-100.00,SSE,165,2.0,4.0,82,0.00,,,0.00,208.000000,,2013-05-14 12:42:00,
2013-05-14 08:52:00,40.0,35.0,-100.00,SSE,165,2.0,4.0,82,0.00,,,0.00,208.000000,,2013-05-14 12:52:00,
2013-05-14 09:01:00,40.0,35.0,-100.00,SSE,165,2.0,4.0,82,0.00,,,-99.99,208.000000,,2013-05-14 13:01:00,
2013-05-14 10:32:00,57.0,39.0,-100.00,SSE,151,3.0,5.0,50,-99.99,,,0.00,677.000000,,2013-05-14 14:32:00,
2013-05-14 11:33:00,66.0,37.0,-100.00,South,184,2.0,6.0,34,0.00,,,0.00,866.000000,,2013-05-14 15:33:00,
2013-05-14 12:33:00,68.0,30.0,-100.00,NW,326,3.0,9.0,24,0.00,,,0.00,961.000000,,2013-05-14 16:33:00,
2013-05-14 13:33:00,71.0,39.0,-100.00,SW,231,3.0,11.0,31,0.00,,,0.00,844.000000,,2013-05-14 17:33:00,
2013-05-14 14:02:00,71.0,39.0,-100.00,SW,231,3.0,11.0,31,0.00,,,0.00,844.000000,,2013-05-14 18:02:00,
2013-05-14 14:32:00,70.0,32.0,-100.00,SSW,204,3.0,6.0,24,0.00,,,-99.99,632.000000,,2013-05-14 18:32:00,
2013-05-14 14:42:00,70.0,32.0,-100.00,SSW,204,3.0,6.0,24,0.00,,,-99.99,632.000000,,2013-05-14 18:42:00,
2013-05-14 14:52:00,70.0,32.0,-100.00,SSW,204,3.0,6.0,24,0.00,,,-99.99,632.000000,,2013-05-14 18:52:00,
2013-05-14 15:01:00,70.0,32.0,-100.00,SSW,204,3.0,6.0,24,0.00,,,-99.99,632.000000,,2013-05-14 19:01:00,
2013-05-14 15:32:00,72.0,43.0,-100.00,SW,224,3.0,7.0,35,0.00,,,0.00,601.000000,,2013-05-14 19:32:00,
2013-05-14 16:33:00,69.0,35.0,-100.00,SW,232,3.0,6.0,29,0.00,,,0.00,349.000000,,2013-05-14 20:33:00,
2013-05-14 16:44:00,69.0,35.0,-100.00,SW,232,3.0,6.0,29,0.00,,,0.00,349.000000,,2013-05-14 20:44:00,
2013-05-14 16:52:00,69.0,35.0,-100.00,SW,232,3.0,6.0,29,0.00,,,0.00,349.000000,,2013-05-14 20:52:00,
2013-05-14 17:03:00,69.0,35.0,-100.00,SW,232,3.0,6.0,29,0.00,,,0.00,349.000000,,2013-05-14 21:03:00,
2013-05-14 18:35:00,67.0,41.0,-100.00,West,271,2.0,5.0,38,-99.99,,,0.00,114.000000,,2013-05-14 22:35:00,
2013-05-14 18:45:00,67.0,41.0,-100.00,West,271,2.0,5.0,38,-99.99,,,0.00,114.000000,,2013-05-14 22:45:00,
2013-05-14 18:55:00,67.0,41.0,-100.00,West,271,2.0,5.0,38,-99.99,,,0.00,114.000000,,2013-05-14 22:55:00,
2013-05-14 19:03:00,67.0,41.0,-100.00,West,271,2.0,5.0,38,-99.99,,,0.00,114.000000,,2013-05-14 23:03:00,
2013-05-14 19:32:00,66.0,40.0,-100.00,SSW,208,3.0,7.0,38,0.00,,,0.00,41.000000,,2013-05-14 23:32:00,
2013-05-14 19:44:00,66.0,40.0,-100.00,SSW,208,3.0,7.0,38,0.00,,,0.00,41.000000,,2013-05-14 23:44:00,
2013-05-14 19:53:00,66.0,40.0,-100.00,SSW,208,3.0,7.0,38,0.00,,,0.00,41.000000,,2013-05-14 23:53:00,
2013-05-14 20:02:00,66.0,40.0,-100.00,SSW,208,3.0,7.0,38,0.00,,,0.00,41.000000,,2013-05-15 00:02:00,
2013-05-14 21:32:00,56.0,45.0,-100.00,NNE,31,1.0,4.0,66,-99.99,,,0.00,2.000000,,2013-05-15 01:32:00,
2013-05-14 22:02:00,56.0,45.0,-100.00,NNE,31,1.0,4.0,66,-99.99,,,0.00,2.000000,,2013-05-15 02:02:00,
2013-05-14 22:32:00,52.0,45.0,-100.00,West,281,2.0,2.0,76,0.00,,,0.00,0.000000,,2013-05-15 02:32:00,
2013-05-14 23:01:00,52.0,45.0,-100.00,West,281,2.0,2.0,76,0.00,,,0.00,0.000000,,2013-05-15 03:01:00,
2013-05-14 23:33:00,49.0,44.0,-100.00,NNW,348,0.0,2.0,82,0.00,,,0.00,0.000000,,2013-05-15 03:33:00,
2013-05-14 23:44:00,49.0,44.0,-100.00,NNW,348,0.0,2.0,82,0.00,,,0.00,0.000000,,2013-05-15 03:44:00,
2013-05-14 23:54:00,49.0,44.0,-100.00,NNW,348,0.0,2.0,82,0.00,,,0.00,0.000000,,2013-05-15 03:54:00,